createdAt,value
2022-10-11T00:00:33.186Z,88.98
2022-10-11T00:01:33.259Z,88.06
2022-10-11T00:02:33.155Z,86.63
2022-10-11T00:03:33.150Z,84.99
2022-10-11T00:04:33.166Z,83.76
2022-10-11T00:05:33.127Z,83.15
2022-10-11T00:06:33.109Z,83.05
2022-10-11T00:07:33.085Z,83.15
2022-10-11T00:08:33.097Z,84.17
2022-10-11T00:09:33.067Z,86.53
2022-10-11T00:10:33.054Z,87.55
2022-10-11T00:11:33.026Z,87.45
2022-10-11T00:12:33.026Z,86.94
2022-10-11T00:13:32.998Z,87.55
2022-10-11T00:14:33.016Z,87.45
2022-10-11T00:15:32.976Z,86.83
2022-10-11T00:16:32.964Z,86.94
2022-10-11T00:17:32.968Z,88.68
2022-10-11T00:18:32.936Z,88.78
2022-10-11T00:19:32.934Z,88.78
2022-10-11T00:20:32.920Z,88.98
2022-10-11T00:21:32.896Z,88.98
2022-10-11T00:22:32.894Z,89.56
2022-10-11T00:23:32.867Z,89.76
2022-10-11T00:24:32.868Z,90.47
2022-10-11T00:25:32.844Z,91.19
2022-10-11T00:26:32.834Z,91.50
2022-10-11T00:27:32.816Z,91.50
2022-10-11T00:28:32.881Z,91.70
2022-10-11T00:29:32.795Z,91.60
2022-10-11T00:30:32.785Z,91.70
2022-10-11T00:31:35.645Z,91.60
2022-10-11T00:32:32.745Z,91.09
2022-10-11T00:33:32.734Z,90.37
2022-10-11T00:34:32.734Z,89.86
2022-10-11T00:35:32.712Z,88.84
2022-10-11T00:36:32.695Z,87.51
2022-10-11T00:37:32.677Z,86.38
2022-10-11T00:38:32.674Z,85.83
2022-10-11T00:39:32.674Z,85.26
2022-10-11T00:40:32.653Z,85.42
2022-10-11T00:41:32.635Z,86.65
2022-10-11T00:42:32.621Z,87.98
2022-10-11T00:43:32.604Z,89.11
2022-10-11T00:44:32.604Z,88.49
2022-10-11T00:45:32.576Z,89.00
2022-10-11T00:46:32.592Z,88.79
2022-10-11T00:47:32.550Z,87.98
2022-10-11T00:48:32.543Z,88.49
2022-10-11T00:49:32.533Z,89.17
2022-10-11T00:50:32.512Z,90.08
2022-10-11T00:51:32.696Z,90.39
2022-10-11T00:52:32.504Z,89.47
2022-10-11T00:53:32.475Z,90.49
2022-10-11T00:54:32.478Z,90.86
2022-10-11T00:55:32.535Z,90.66
2022-10-11T00:56:32.436Z,90.75
2022-10-11T00:57:32.414Z,90.04
2022-10-11T00:58:32.403Z,90.25
2022-10-11T00:59:32.401Z,89.02
2022-10-11T01:00:32.383Z,89.43
2022-10-11T01:01:32.410Z,89.43
2022-10-11T01:02:32.375Z,89.63
2022-10-11T01:03:32.346Z,88.37
2022-10-11T01:04:32.334Z,88.88
2022-10-11T01:05:32.314Z,87.96
2022-10-11T01:06:32.300Z,88.06
2022-10-11T01:07:32.302Z,88.26
2022-10-11T01:08:32.270Z,87.76
2022-10-11T01:09:32.272Z,87.65
2022-10-11T01:10:32.257Z,87.65
2022-10-11T01:11:32.223Z,87.51
2022-10-11T01:12:32.212Z,87.30
2022-10-11T01:13:32.201Z,86.69
2022-10-11T01:14:32.203Z,86.08
2022-10-11T01:15:32.173Z,85.57
2022-10-11T01:16:32.172Z,86.59
2022-10-11T01:17:32.154Z,86.90
2022-10-11T01:18:32.141Z,86.90
2022-10-11T01:19:32.175Z,85.47
2022-10-11T01:20:32.108Z,85.77
2022-10-11T01:21:32.099Z,85.88
2022-10-11T01:22:32.093Z,85.57
2022-10-11T01:23:32.070Z,85.57
2022-10-11T01:24:32.071Z,85.88
2022-10-11T01:25:32.042Z,85.06
2022-10-11T01:26:32.032Z,85.16
2022-10-11T01:27:32.023Z,85.88
2022-10-11T01:28:32.022Z,85.47
2022-10-11T01:29:32.000Z,85.98
2022-10-11T01:30:31.983Z,85.16
2022-10-11T01:31:31.964Z,85.16
2022-10-11T01:32:31.951Z,85.37
2022-10-11T01:33:31.940Z,84.25
2022-10-11T01:34:31.940Z,84.86
2022-10-11T01:35:31.910Z,84.66
2022-10-11T01:36:31.941Z,84.66
2022-10-11T01:37:32.601Z,84.04
2022-10-11T01:38:31.875Z,83.84
2022-10-11T01:39:31.861Z,83.43
2022-10-11T01:40:31.843Z,84.14
2022-10-11T01:41:31.839Z,83.94
2022-10-11T01:42:31.823Z,83.02
2022-10-11T01:43:31.800Z,82.82
2022-10-11T01:44:31.815Z,82.00
2022-10-11T01:45:31.770Z,81.80
2022-10-11T01:46:31.770Z,83.63
2022-10-11T01:47:31.774Z,84.25
2022-10-11T01:48:31.750Z,83.43
2022-10-11T01:49:31.726Z,83.06
2022-10-11T01:50:31.730Z,83.57
2022-10-11T01:51:31.709Z,83.98
2022-10-11T01:52:31.693Z,84.18
2022-10-11T01:53:31.691Z,83.16
2022-10-11T01:54:49.859Z,83.57
2022-10-11T01:55:32.671Z,83.57
2022-10-11T01:56:31.643Z,84.08
2022-10-11T01:57:31.612Z,83.57
2022-10-11T01:58:31.612Z,84.49
2022-10-11T01:59:31.593Z,83.71
2022-10-11T02:00:31.590Z,82.69
2022-10-11T02:01:31.643Z,83.30
2022-10-11T02:02:31.570Z,82.08
2022-10-11T02:03:31.549Z,80.96
2022-10-11T02:04:31.522Z,82.28
2022-10-11T02:05:31.509Z,81.98
2022-10-11T02:06:31.517Z,81.67
2022-10-11T02:07:31.483Z,81.87
2022-10-11T02:08:31.484Z,81.57
2022-10-11T02:09:31.460Z,82.08
2022-10-11T02:10:31.451Z,82.39
2022-10-11T02:11:31.435Z,82.42
2022-10-11T02:12:31.421Z,81.91
2022-10-11T02:13:31.409Z,81.60
2022-10-11T02:14:31.401Z,80.99
2022-10-11T02:15:31.370Z,81.30
2022-10-11T02:16:31.364Z,81.81
2022-10-11T02:17:31.360Z,81.51
2022-10-11T02:18:31.370Z,81.30
2022-10-11T02:19:31.321Z,81.20
2022-10-11T02:20:31.322Z,81.40
2022-10-11T02:21:31.308Z,80.99
2022-10-11T02:22:31.283Z,80.69
2022-10-11T02:23:31.300Z,80.99
2022-10-11T02:24:31.270Z,82.22
2022-10-11T02:25:31.240Z,81.30
2022-10-11T02:26:31.239Z,81.20
2022-10-11T02:27:31.213Z,80.89
2022-10-11T02:28:31.283Z,80.48
2022-10-11T02:29:31.189Z,80.38
2022-10-11T02:30:31.180Z,80.38
2022-10-11T02:31:31.169Z,80.07
2022-10-11T02:32:31.170Z,80.89
2022-10-11T02:33:31.140Z,81.30
2022-10-11T02:34:31.130Z,80.48
2022-10-11T02:35:31.109Z,80.48
2022-10-11T02:36:31.099Z,80.18
2022-10-11T02:37:31.080Z,80.99
2022-10-11T02:38:31.081Z,81.91
2022-10-11T02:39:31.059Z,81.71
2022-10-11T02:40:31.049Z,80.69
2022-10-11T02:41:31.028Z,79.97
2022-10-11T02:42:31.019Z,79.87
2022-10-11T02:43:31.008Z,80.18
2022-10-11T02:44:30.998Z,80.69
2022-10-11T02:45:30.977Z,80.28
2022-10-11T02:46:30.968Z,79.57
2022-10-11T02:47:30.957Z,79.97
2022-10-11T02:48:30.975Z,79.77
2022-10-11T02:49:30.921Z,80.58
2022-10-11T02:50:30.908Z,80.07
2022-10-11T02:51:30.907Z,79.77
2022-10-11T02:52:30.888Z,79.36
2022-10-11T02:53:30.886Z,79.36
2022-10-11T02:54:30.857Z,78.99
2022-10-11T02:55:30.846Z,79.29
2022-10-11T02:56:30.845Z,79.70
2022-10-11T02:57:30.817Z,79.91
2022-10-11T02:58:30.846Z,79.60
2022-10-11T02:59:30.786Z,79.70
2022-10-11T03:00:30.786Z,80.83
2022-10-11T03:01:30.833Z,81.44
2022-10-11T03:02:30.769Z,80.62
2022-10-11T03:03:30.742Z,81.44
2022-10-11T03:04:30.726Z,82.05
2022-10-11T03:05:30.731Z,81.13
2022-10-11T03:06:30.710Z,80.62
2022-10-11T03:07:30.681Z,80.83
2022-10-11T03:08:30.697Z,80.93
2022-10-11T03:09:30.656Z,81.24
2022-10-11T03:10:30.648Z,81.24
2022-10-11T03:11:30.631Z,80.73
2022-10-11T03:12:30.625Z,80.93
2022-10-11T03:13:30.606Z,80.73
2022-10-11T03:14:30.587Z,80.83
2022-10-11T03:15:30.593Z,81.54
2022-10-11T03:16:31.248Z,81.54
2022-10-11T03:17:36.723Z,81.95
2022-10-11T03:18:31.588Z,81.74
2022-10-11T03:19:30.520Z,81.88
2022-10-11T03:20:30.509Z,81.27
2022-10-11T03:21:30.496Z,80.87
2022-10-11T03:22:30.486Z,80.25
2022-10-11T03:23:30.476Z,79.94
2022-10-11T03:24:30.457Z,80.87
2022-10-11T03:25:30.436Z,79.94
2022-10-11T03:26:30.468Z,79.94
2022-10-11T03:27:30.433Z,80.87
2022-10-11T03:28:30.464Z,81.07
2022-10-11T03:29:30.387Z,81.01
2022-10-11T03:30:30.379Z,81.21
2022-10-11T03:31:30.366Z,81.31
2022-10-11T03:32:30.351Z,82.03
2022-10-11T03:33:30.337Z,82.23
2022-10-11T03:34:30.317Z,81.93
2022-10-11T03:35:30.353Z,82.34
2022-10-11T03:36:30.297Z,82.23
2022-10-11T03:37:30.290Z,82.27
2022-10-11T03:38:30.281Z,83.09
2022-10-11T03:39:30.258Z,82.98
2022-10-11T03:40:30.238Z,82.62
2022-10-11T03:41:30.225Z,83.33
2022-10-11T03:42:30.226Z,83.95
2022-10-11T03:43:30.202Z,83.74
2022-10-11T03:44:30.195Z,82.96
2022-10-11T03:45:30.174Z,83.27
2022-10-11T03:46:30.165Z,83.17
2022-10-11T03:47:30.173Z,83.31
2022-10-11T03:48:30.136Z,83.41
2022-10-11T03:49:30.128Z,84.12
2022-10-11T03:50:30.105Z,84.58
2022-10-11T03:51:30.085Z,85.09
2022-10-11T03:52:30.095Z,85.09
2022-10-11T03:53:30.063Z,84.72
2022-10-11T03:54:30.069Z,84.82
2022-10-11T03:55:30.053Z,84.61
2022-10-11T03:56:30.025Z,85.03
2022-10-11T03:57:30.030Z,85.38
2022-10-11T03:58:30.007Z,85.58
2022-10-11T03:59:29.992Z,85.47
2022-10-11T04:00:29.995Z,85.68
2022-10-11T04:01:29.965Z,85.93
2022-10-11T04:02:29.958Z,85.72
2022-10-11T04:03:29.956Z,86.03
2022-10-11T04:04:29.914Z,86.54
2022-10-11T04:05:29.911Z,86.54
2022-10-11T04:06:29.915Z,86.27
2022-10-11T04:07:29.884Z,86.07
2022-10-11T04:08:29.865Z,86.07
2022-10-11T04:09:29.852Z,85.66
2022-10-11T04:10:29.846Z,86.52
2022-10-11T04:11:29.820Z,87.34
2022-10-11T04:12:29.835Z,86.83
2022-10-11T04:13:29.797Z,86.32
2022-10-11T04:14:29.783Z,86.00
2022-10-11T04:15:29.772Z,86.05
2022-10-11T04:16:29.764Z,85.74
2022-10-11T04:17:29.764Z,85.63
2022-10-11T04:18:29.734Z,85.53
2022-10-11T04:19:29.740Z,85.74
2022-10-11T04:20:29.705Z,86.46
2022-10-11T04:21:29.694Z,86.40
2022-10-11T04:22:29.685Z,86.50
2022-10-11T04:23:29.674Z,86.40
2022-10-11T04:24:29.665Z,86.60
2022-10-11T04:25:29.641Z,86.70
2022-10-11T04:26:29.624Z,87.12
2022-10-11T04:27:29.623Z,87.01
2022-10-11T04:28:29.626Z,86.91
2022-10-11T04:29:32.517Z,86.85
2022-10-11T04:30:29.572Z,86.64
2022-10-11T04:31:29.572Z,86.64
2022-10-11T04:32:29.549Z,86.54
2022-10-11T04:33:29.532Z,86.47
2022-10-11T04:34:29.517Z,86.58
2022-10-11T04:35:29.527Z,86.68
2022-10-11T04:36:29.493Z,86.68
2022-10-11T04:37:29.485Z,86.82
2022-10-11T04:38:29.462Z,86.82
2022-10-11T04:39:29.452Z,86.61
2022-10-11T04:40:29.440Z,86.31
2022-10-11T04:41:29.441Z,86.41
2022-10-11T04:42:29.422Z,86.45
2022-10-11T04:43:29.401Z,86.35
2022-10-11T04:44:29.380Z,86.45
2022-10-11T04:45:29.375Z,86.97
2022-10-11T04:46:29.353Z,86.76
2022-10-11T04:47:29.352Z,86.66
2022-10-11T04:48:29.328Z,86.66
2022-10-11T04:49:29.341Z,86.66
2022-10-11T04:50:29.304Z,86.70
2022-10-11T04:51:29.320Z,86.60
2022-10-11T04:52:29.288Z,86.80
2022-10-11T04:53:29.260Z,86.90
2022-10-11T04:54:29.279Z,86.60
2022-10-11T04:55:29.241Z,86.70
2022-10-11T04:56:29.249Z,86.49
2022-10-11T04:57:29.248Z,86.70
2022-10-11T04:58:29.195Z,86.63
2022-10-11T04:59:29.181Z,86.43
2022-10-11T05:00:29.171Z,86.22
2022-10-11T05:01:29.168Z,86.43
2022-10-11T05:02:29.229Z,86.43
2022-10-11T05:03:29.129Z,86.74
2022-10-11T05:04:29.126Z,87.15
2022-10-11T05:05:29.122Z,87.19
2022-10-11T05:06:29.096Z,87.19
2022-10-11T05:07:29.079Z,87.40
2022-10-11T05:08:29.066Z,87.40
2022-10-11T05:09:29.049Z,87.19
2022-10-11T05:10:29.040Z,86.98
2022-10-11T05:11:29.047Z,87.13
2022-10-11T05:12:29.007Z,87.34
2022-10-11T05:13:28.997Z,87.23
2022-10-11T05:14:28.986Z,87.23
2022-10-11T05:15:28.969Z,87.23
2022-10-11T05:16:28.960Z,87.54
2022-10-11T05:17:28.947Z,87.58
2022-10-11T05:18:28.944Z,87.79
2022-10-11T05:19:28.926Z,88.51
2022-10-11T05:20:28.903Z,88.61
2022-10-11T05:21:28.901Z,88.41
2022-10-11T05:22:28.886Z,87.89
2022-10-11T05:23:28.897Z,87.68
2022-10-11T05:24:28.845Z,87.58
2022-10-11T05:25:28.836Z,87.17
2022-10-11T05:26:28.836Z,86.96
2022-10-11T05:27:28.816Z,86.96
2022-10-11T05:28:28.836Z,87.21
2022-10-11T05:29:28.787Z,86.90
2022-10-11T05:30:28.770Z,87.00
2022-10-11T05:31:28.773Z,86.79
2022-10-11T05:32:28.744Z,86.59
2022-10-11T05:33:28.734Z,86.38
2022-10-11T05:34:28.716Z,86.79
2022-10-11T05:35:28.705Z,87.10
2022-10-11T05:36:28.705Z,87.21
2022-10-11T05:37:28.684Z,87.73
2022-10-11T05:38:28.665Z,88.04
2022-10-11T05:39:28.654Z,87.62
2022-10-11T05:40:28.645Z,87.83
2022-10-11T05:41:28.662Z,87.52
2022-10-11T05:42:28.612Z,87.41
2022-10-11T05:43:28.614Z,87.00
2022-10-11T05:44:28.585Z,87.00
2022-10-11T05:45:28.573Z,86.90
2022-10-11T05:46:28.822Z,86.79
2022-10-11T05:47:28.553Z,86.90
2022-10-11T05:48:28.532Z,87.10
2022-10-11T05:49:28.530Z,87.41
2022-10-11T05:50:28.512Z,87.62
2022-10-11T05:51:28.510Z,87.41
2022-10-11T05:52:28.486Z,87.41
2022-10-11T05:53:28.481Z,87.41
2022-10-11T05:54:28.472Z,87.62
2022-10-11T05:55:28.449Z,87.83
2022-10-11T05:56:28.433Z,87.17
2022-10-11T05:57:28.413Z,86.13
2022-10-11T05:58:28.404Z,85.83
2022-10-11T05:59:28.392Z,85.58
2022-10-11T06:00:28.410Z,84.86
2022-10-11T06:01:28.442Z,83.72
2022-10-11T06:02:28.360Z,84.34
2022-10-11T06:03:28.342Z,84.51
2022-10-11T06:04:28.332Z,84.51
2022-10-11T06:05:28.313Z,83.68
2022-10-11T06:06:28.313Z,83.03
2022-10-11T06:07:28.288Z,82.51
2022-10-11T06:08:28.271Z,82.10
2022-10-11T06:09:28.271Z,83.13
2022-10-11T06:10:28.286Z,82.98
2022-10-11T06:11:28.261Z,82.98
2022-10-11T06:12:28.232Z,82.68
2022-10-11T06:13:28.215Z,83.71
2022-10-11T06:14:28.198Z,84.53
2022-10-11T06:15:28.180Z,83.61
2022-10-11T06:16:28.192Z,83.40
2022-10-11T06:17:28.150Z,83.40
2022-10-11T06:18:28.168Z,83.40
2022-10-11T06:19:28.130Z,83.77
2022-10-11T06:20:28.132Z,84.08
2022-10-11T06:21:28.117Z,84.19
2022-10-11T06:22:28.080Z,84.49
2022-10-11T06:23:28.088Z,84.59
2022-10-11T06:24:28.052Z,85.31
2022-10-11T06:25:28.052Z,85.63
2022-10-11T06:26:28.060Z,86.66
2022-10-11T06:27:28.019Z,87.17
2022-10-11T06:28:28.060Z,87.38
2022-10-11T06:29:28.000Z,87.69
2022-10-11T06:30:28.081Z,87.99
2022-10-11T06:31:27.981Z,88.31
2022-10-11T06:32:27.969Z,88.62
2022-10-11T06:33:27.941Z,88.47
2022-10-11T06:34:27.930Z,88.68
2022-10-11T06:35:27.918Z,88.57
2022-10-11T06:36:27.906Z,87.85
2022-10-11T06:37:27.888Z,87.03
2022-10-11T06:38:27.878Z,86.93
2022-10-11T06:39:27.869Z,86.72
2022-10-11T06:40:27.916Z,86.00
2022-10-11T06:41:27.845Z,85.49
2022-10-11T06:42:27.817Z,85.96
2022-10-11T06:43:27.808Z,86.06
2022-10-11T06:44:27.804Z,85.65
2022-10-11T06:45:27.787Z,85.75
2022-10-11T06:46:27.777Z,85.44
2022-10-11T06:47:27.755Z,85.86
2022-10-11T06:48:27.736Z,85.65
2022-10-11T06:49:27.749Z,85.44
2022-10-11T06:50:54.285Z,84.83
2022-10-11T06:51:28.705Z,84.11
2022-10-11T06:52:27.686Z,83.35
2022-10-11T06:53:27.676Z,82.63
2022-10-11T06:54:27.662Z,82.63
2022-10-11T06:55:27.659Z,82.93
2022-10-11T06:56:27.656Z,83.14
2022-10-11T06:57:27.622Z,83.35
2022-10-11T06:58:27.602Z,83.65
2022-10-11T06:59:27.595Z,83.72
2022-10-11T07:00:27.575Z,83.62
2022-10-11T07:01:27.642Z,83.62
2022-10-11T07:02:27.548Z,84.03
2022-10-11T07:03:27.544Z,84.34
2022-10-11T07:04:27.524Z,84.61
2022-10-11T07:05:27.513Z,84.81
2022-10-11T07:06:27.513Z,85.12
2022-10-11T07:07:27.503Z,85.90
2022-10-11T07:08:27.466Z,86.62
2022-10-11T07:09:27.466Z,86.79
2022-10-11T07:10:27.437Z,87.16
2022-10-11T07:11:27.445Z,87.84
2022-10-11T07:12:27.415Z,88.00
2022-10-11T07:13:27.415Z,87.47
2022-10-11T07:14:27.396Z,86.36
2022-10-11T07:15:27.386Z,84.61
2022-10-11T07:16:27.374Z,82.75
2022-10-11T07:17:27.396Z,81.35
2022-10-11T07:18:27.334Z,79.64
2022-10-11T07:19:27.330Z,79.06
2022-10-11T07:20:27.313Z,77.67
2022-10-11T07:21:27.304Z,76.01
2022-10-11T07:22:27.283Z,74.75
2022-10-11T07:23:27.283Z,74.31
2022-10-11T07:24:27.253Z,73.39
2022-10-11T07:25:27.254Z,73.46
2022-10-11T07:26:27.244Z,72.92
2022-10-11T07:27:27.214Z,71.97
2022-10-11T07:28:27.255Z,72.14
2022-10-11T07:29:27.194Z,71.80
2022-10-11T07:30:27.193Z,71.77
2022-10-11T07:31:27.165Z,71.40
2022-10-11T07:32:27.158Z,69.55
2022-10-11T07:33:27.154Z,67.90
2022-10-11T07:34:27.123Z,66.72
2022-10-11T07:35:27.123Z,65.05
2022-10-11T07:36:27.465Z,64.41
2022-10-11T07:37:27.096Z,62.94
2022-10-11T07:38:27.073Z,61.37
2022-10-11T07:39:27.057Z,60.21
2022-10-11T07:40:27.059Z,59.45
2022-10-11T07:41:27.024Z,58.51
2022-10-11T07:42:27.004Z,56.35
2022-10-11T07:43:27.003Z,55.73
2022-10-11T07:44:26.985Z,55.40
2022-10-11T07:45:26.984Z,54.47
2022-10-11T07:46:26.963Z,52.74
2022-10-11T07:47:26.963Z,52.52
2022-10-11T07:48:27.656Z,52.39
2022-10-11T07:49:26.978Z,50.97
2022-10-11T07:50:26.979Z,50.95
2022-10-11T07:51:26.904Z,50.54
2022-10-11T07:52:26.894Z,50.42
2022-10-11T07:53:26.905Z,49.72
2022-10-11T07:54:26.855Z,49.50
2022-10-11T07:55:26.865Z,50.49
2022-10-11T07:56:26.834Z,49.38
2022-10-11T07:57:26.844Z,49.87
2022-10-11T07:58:26.807Z,49.15
2022-10-11T07:59:26.794Z,49.35
2022-10-11T08:00:26.787Z,48.65
2022-10-11T08:01:26.911Z,48.65
2022-10-11T08:02:26.755Z,49.05
2022-10-11T08:03:26.785Z,48.85
2022-10-11T08:04:26.752Z,48.33
2022-10-11T08:05:26.746Z,48.23
2022-10-11T08:06:26.774Z,46.81
2022-10-11T08:07:26.712Z,46.59
2022-10-11T08:08:26.695Z,44.80
2022-10-11T08:09:26.705Z,45.48
2022-10-11T08:10:26.686Z,44.96
2022-10-11T08:11:26.647Z,44.85
2022-10-11T08:12:26.637Z,45.03
2022-10-11T08:13:26.616Z,44.02
2022-10-11T08:14:26.617Z,45.01
2022-10-11T08:15:26.662Z,42.91
2022-10-11T08:16:27.517Z,42.69
2022-10-11T08:17:26.596Z,42.49
2022-10-11T08:18:26.567Z,42.27
2022-10-11T08:19:26.567Z,42.07
2022-10-11T08:20:26.507Z,41.55
2022-10-11T08:21:26.528Z,41.75
2022-10-11T08:22:26.488Z,41.75
2022-10-11T08:23:26.478Z,40.55
2022-10-11T08:24:26.508Z,40.25
2022-10-11T08:25:26.643Z,40.34
2022-10-11T08:26:26.434Z,40.05
2022-10-11T08:27:26.430Z,40.34
2022-10-11T08:28:26.463Z,39.95
2022-10-11T08:29:26.407Z,40.15
2022-10-11T08:30:26.390Z,39.14
2022-10-11T08:31:26.375Z,40.52
2022-10-11T08:32:26.360Z,38.74
2022-10-11T08:33:26.394Z,38.44
2022-10-11T08:34:26.346Z,38.74
2022-10-11T08:35:26.357Z,38.13
2022-10-11T08:36:26.332Z,39.04
2022-10-11T08:37:26.293Z,39.12
2022-10-11T08:38:26.280Z,38.23
2022-10-11T08:39:26.279Z,38.40
2022-10-11T08:40:26.262Z,37.62
2022-10-11T08:41:26.250Z,36.62
2022-10-11T08:42:26.241Z,37.73
2022-10-11T08:43:26.217Z,37.73
2022-10-11T08:44:26.240Z,38.23
2022-10-11T08:45:26.180Z,37.63
2022-10-11T08:46:26.202Z,37.93
2022-10-11T08:47:26.160Z,38.72
2022-10-11T08:48:26.160Z,37.55
2022-10-11T08:49:26.172Z,38.05
2022-10-11T08:50:26.162Z,37.35
2022-10-11T08:51:26.101Z,39.04
2022-10-11T08:52:26.104Z,39.14
2022-10-11T08:53:26.082Z,39.81
2022-10-11T08:54:26.091Z,38.53
2022-10-11T08:55:26.072Z,38.32
2022-10-11T08:56:26.051Z,38.03
2022-10-11T08:57:26.033Z,38.72
2022-10-11T08:58:26.033Z,37.12
2022-10-11T08:59:26.026Z,37.24
2022-10-11T09:00:26.003Z,38.32
2022-10-11T09:01:26.047Z,37.93
2022-10-11T09:02:25.973Z,37.43
2022-10-11T09:03:25.959Z,37.53
2022-10-11T09:04:25.953Z,37.43
2022-10-11T09:05:25.923Z,37.35
2022-10-11T09:06:25.923Z,38.94
2022-10-11T09:07:25.896Z,38.05
2022-10-11T09:08:25.920Z,38.15
2022-10-11T09:09:25.884Z,39.25
2022-10-11T09:10:25.882Z,38.07
2022-10-11T09:11:25.856Z,37.47
2022-10-11T09:12:29.540Z,38.28
2022-10-11T09:13:26.834Z,38.68
2022-10-11T09:14:25.811Z,39.57
2022-10-11T09:15:25.795Z,38.78
2022-10-11T09:16:25.803Z,39.07
2022-10-11T09:17:25.773Z,39.07
2022-10-11T09:18:25.764Z,38.18
2022-10-11T09:19:25.753Z,38.18
2022-10-11T09:20:25.744Z,38.70
2022-10-11T09:21:25.716Z,39.00
2022-10-11T09:22:30.256Z,38.62
2022-10-11T09:23:26.706Z,38.71
2022-10-11T09:24:25.685Z,39.33
2022-10-11T09:25:25.674Z,39.43
2022-10-11T09:26:25.665Z,40.54
2022-10-11T09:27:43.674Z,40.44
2022-10-11T09:28:26.636Z,40.74
2022-10-11T09:29:25.624Z,40.54
2022-10-11T09:30:25.605Z,40.86
2022-10-11T09:31:25.607Z,40.86
2022-10-11T09:32:25.587Z,40.68
2022-10-11T09:33:25.566Z,40.70
2022-10-11T09:34:25.547Z,41.30
2022-10-11T09:35:25.548Z,41.30
2022-10-11T09:36:25.529Z,42.29
2022-10-11T09:37:25.527Z,41.38
2022-10-11T09:38:25.508Z,42.17
2022-10-11T09:39:25.484Z,42.47
2022-10-11T09:40:25.467Z,42.77
2022-10-11T09:41:25.467Z,42.77
2022-10-11T09:42:25.448Z,42.37
2022-10-11T09:43:25.447Z,41.28
2022-10-11T09:44:25.418Z,41.89
2022-10-11T09:45:25.419Z,41.79
2022-10-11T09:46:25.400Z,42.31
2022-10-11T09:47:25.418Z,42.11
2022-10-11T09:48:25.410Z,42.81
2022-10-11T09:49:25.361Z,42.93
2022-10-11T09:50:25.339Z,43.75
2022-10-11T09:51:25.337Z,42.47
2022-10-11T09:52:25.330Z,43.51
2022-10-11T09:53:25.326Z,43.85
2022-10-11T09:54:25.279Z,43.99
2022-10-11T09:55:25.269Z,44.43
2022-10-11T09:56:25.273Z,46.66
2022-10-11T09:57:25.242Z,47.28
2022-10-11T09:58:25.250Z,46.56
2022-10-11T09:59:25.211Z,48.36
2022-10-11T10:00:25.205Z,46.14
2022-10-11T10:01:25.277Z,46.31
2022-10-11T10:02:25.209Z,47.72
2022-10-11T10:03:25.177Z,47.79
2022-10-11T10:04:25.171Z,46.09
2022-10-11T10:05:25.157Z,44.20
2022-10-11T10:06:25.122Z,45.00
2022-10-11T10:07:25.141Z,46.97
2022-10-11T10:08:25.100Z,46.07
2022-10-11T10:09:25.080Z,46.07
2022-10-11T10:10:25.081Z,44.87
2022-10-11T10:11:25.063Z,45.57
2022-10-11T10:12:25.050Z,45.05
2022-10-11T10:13:25.039Z,43.65
2022-10-11T10:14:25.021Z,44.15
2022-10-11T10:15:25.004Z,45.65
2022-10-11T10:16:25.000Z,45.03
2022-10-11T10:17:24.973Z,44.63
2022-10-11T10:18:24.976Z,45.03
2022-10-11T10:19:24.951Z,43.33
2022-10-11T10:20:24.945Z,44.33
2022-10-11T10:21:24.929Z,42.73
2022-10-11T10:22:24.913Z,38.94
2022-10-11T10:23:24.903Z,40.95
2022-10-11T10:24:24.902Z,43.37
2022-10-11T10:25:24.862Z,42.19
2022-10-11T10:26:24.870Z,43.71
2022-10-11T10:27:24.865Z,46.24
2022-10-11T10:28:24.960Z,44.13
2022-10-11T10:29:24.832Z,45.26
2022-10-11T10:30:24.815Z,46.06
2022-10-11T10:31:24.796Z,44.16
2022-10-11T10:32:24.783Z,43.88
2022-10-11T10:33:24.773Z,45.18
2022-10-11T10:34:24.763Z,43.68
2022-10-11T10:35:24.742Z,45.18
2022-10-11T10:36:24.725Z,48.28
2022-10-11T10:37:24.722Z,48.28
2022-10-11T10:38:26.749Z,46.61
2022-10-11T10:39:24.691Z,46.30
2022-10-11T10:40:24.694Z,46.12
2022-10-11T10:41:24.656Z,46.04
2022-10-11T10:42:24.644Z,46.77
2022-10-11T10:43:24.656Z,47.77
2022-10-11T10:44:24.655Z,48.10
2022-10-11T10:45:24.649Z,48.52
2022-10-11T10:46:24.607Z,50.73
2022-10-11T10:47:24.582Z,50.63
2022-10-11T10:48:24.573Z,51.01
2022-10-11T10:49:51.922Z,51.72
2022-10-11T10:50:25.535Z,51.49
2022-10-11T10:51:24.524Z,50.09
2022-10-11T10:52:24.515Z,50.41
2022-10-11T10:53:24.503Z,47.90
2022-10-11T10:54:24.523Z,48.12
2022-10-11T10:55:24.474Z,47.94
2022-10-11T10:56:24.470Z,50.35
2022-10-11T10:57:24.454Z,50.58
2022-10-11T10:58:24.457Z,50.91
2022-10-11T10:59:24.423Z,51.23
2022-10-11T11:00:24.427Z,51.93
2022-10-11T11:01:24.433Z,53.14
2022-10-11T11:02:41.344Z,53.83
2022-10-11T11:03:25.367Z,53.00
2022-10-11T11:04:24.356Z,51.66
2022-10-11T11:05:24.339Z,49.22
2022-10-11T11:06:24.324Z,45.31
2022-10-11T11:07:24.324Z,47.94
2022-10-11T11:08:24.315Z,46.64
2022-10-11T11:09:24.276Z,43.90
2022-10-11T11:10:24.296Z,45.41
2022-10-11T11:11:24.255Z,44.60
2022-10-11T11:12:24.263Z,45.91
2022-10-11T11:13:24.254Z,46.61
2022-10-11T11:14:24.218Z,49.01
2022-10-11T11:15:31.309Z,47.27
2022-10-11T11:16:25.201Z,46.47
2022-10-11T11:17:24.213Z,50.79
2022-10-11T11:18:24.167Z,46.15
2022-10-11T11:19:24.160Z,48.25
2022-10-11T11:20:24.146Z,45.32
2022-10-11T11:21:24.140Z,44.02
2022-10-11T11:22:24.145Z,42.41
2022-10-11T11:23:24.112Z,41.71
2022-10-11T11:24:24.086Z,44.62
2022-10-11T11:25:24.085Z,44.40
2022-10-11T11:26:24.077Z,40.11
2022-10-11T11:27:24.095Z,41.03
2022-10-11T11:28:24.093Z,41.23
2022-10-11T11:29:24.017Z,44.14
2022-10-11T11:30:24.007Z,46.35
2022-10-11T11:31:23.986Z,46.25
2022-10-11T11:32:23.994Z,46.95
2022-10-11T11:33:23.956Z,46.95
2022-10-11T11:34:23.961Z,46.35
2022-10-11T11:35:23.938Z,45.77
2022-10-11T11:36:23.957Z,47.07
2022-10-11T11:37:23.916Z,46.09
2022-10-11T11:38:27.240Z,46.31
2022-10-11T11:39:24.897Z,45.71
2022-10-11T11:40:23.875Z,44.93
2022-10-11T11:41:23.867Z,44.85
2022-10-11T11:42:23.857Z,45.45
2022-10-11T11:43:23.826Z,47.46
2022-10-11T11:44:27.269Z,48.44
2022-10-11T11:45:23.812Z,48.44
2022-10-11T11:46:23.807Z,48.93
2022-10-11T11:47:23.775Z,46.41
2022-10-11T11:48:23.766Z,47.32
2022-10-11T11:49:23.747Z,45.81
2022-10-11T11:50:23.738Z,45.91
2022-10-11T11:51:26.497Z,46.29
2022-10-11T11:52:23.707Z,46.80
2022-10-11T11:53:23.699Z,46.17
2022-10-11T11:54:23.699Z,46.57
2022-10-11T11:55:23.669Z,44.96
2022-10-11T11:56:23.678Z,44.46
2022-10-11T11:57:23.638Z,43.66
2022-10-11T11:58:23.639Z,43.76
2022-10-11T11:59:23.636Z,45.37
2022-10-11T12:00:23.608Z,44.16
2022-10-11T12:01:27.575Z,46.07
2022-10-11T12:02:24.731Z,39.84
2022-10-11T12:03:23.565Z,40.26
2022-10-11T12:04:23.567Z,41.07
2022-10-11T12:05:23.538Z,44.68
2022-10-11T12:06:23.538Z,45.09
2022-10-11T12:07:23.511Z,44.18
2022-10-11T12:08:23.528Z,43.38
2022-10-11T12:09:23.497Z,42.19
2022-10-11T12:10:23.476Z,44.60
2022-10-11T12:11:23.468Z,46.92
2022-10-11T12:12:23.448Z,45.53
2022-10-11T12:13:23.430Z,46.54
2022-10-11T12:14:23.418Z,47.14
2022-10-11T12:15:23.410Z,47.56
2022-10-11T12:16:23.419Z,47.86
2022-10-11T12:17:23.390Z,49.15
2022-10-11T12:18:23.369Z,48.95
2022-10-11T12:19:23.349Z,49.33
2022-10-11T12:20:23.351Z,48.12
2022-10-11T12:21:23.329Z,46.34
2022-10-11T12:22:23.320Z,46.03
2022-10-11T12:23:23.300Z,46.76
2022-10-11T12:24:23.290Z,46.36
2022-10-11T12:25:23.268Z,45.95
2022-10-11T12:26:23.270Z,48.17
2022-10-11T12:27:23.249Z,46.46
2022-10-11T12:28:23.292Z,48.35
2022-10-11T12:29:28.233Z,48.35
2022-10-11T12:30:24.218Z,49.83
2022-10-11T12:31:23.190Z,46.11
2022-10-11T12:32:23.182Z,46.84
2022-10-11T12:33:23.160Z,46.23
2022-10-11T12:34:23.152Z,45.83
2022-10-11T12:35:23.148Z,47.56
2022-10-11T12:36:23.131Z,47.36
2022-10-11T12:37:23.110Z,47.59
2022-10-11T12:38:23.111Z,48.21
2022-10-11T12:39:23.105Z,49.42
2022-10-11T12:40:23.080Z,49.22
2022-10-11T12:41:23.060Z,48.34
2022-10-11T12:42:23.059Z,48.94
2022-10-11T12:43:23.037Z,47.94
2022-10-11T12:44:23.027Z,47.33
2022-10-11T12:45:23.020Z,48.46
2022-10-11T12:46:22.991Z,49.24
2022-10-11T12:47:22.989Z,50.15
2022-10-11T12:48:22.971Z,50.05
2022-10-11T12:49:22.957Z,48.32
2022-10-11T12:50:22.961Z,49.73
2022-10-11T12:51:22.932Z,48.52
2022-10-11T12:52:22.923Z,44.97